sensor_id;sensor_type;location;lat;lon;timestamp;P1;durP1;ratioP1;P2;durP2;ratioP2
53688;SDS011;39583;54.682;30.662;2022-12-29T09:50:00;18.95;;;13.27;;
53688;SDS011;39583;54.682;30.662;2022-12-29T09:52:31;17.33;;;11.13;;
53688;SDS011;39583;54.682;30.662;2022-12-29T09:55:05;17.98;;;9.50;;
53688;SDS011;39583;54.682;30.662;2022-12-29T09:57:40;18.13;;;10.05;;
53688;SDS011;39583;54.682;30.662;2022-12-29T10:00:37;18.42;;;10.57;;
53688;SDS011;39583;54.682;30.662;2022-12-29T10:03:16;16.17;;;9.23;;
53688;SDS011;39583;54.682;30.662;2022-12-29T10:05:50;18.33;;;11.35;;
53688;SDS011;39583;54.682;30.662;2022-12-29T10:08:40;22.88;;;11.82;;
53688;SDS011;39583;54.682;30.662;2022-12-29T10:14:17;20.80;;;10.85;;
53688;SDS011;39583;54.682;30.662;2022-12-29T10:19:32;17.38;;;9.90;;
53688;SDS011;39583;54.682;30.662;2022-12-29T10:25:17;18.73;;;9.98;;
53688;SDS011;39583;54.682;30.662;2022-12-29T10:27:47;17.20;;;9.57;;
53688;SDS011;39583;54.682;30.662;2022-12-29T10:30:14;21.92;;;10.45;;
53688;SDS011;39583;54.682;30.662;2022-12-29T10:35:26;14.75;;;10.82;;
53688;SDS011;39583;54.682;30.662;2022-12-29T10:37:59;19.48;;;11.23;;
53688;SDS011;39583;54.682;30.662;2022-12-29T10:43:28;21.42;;;15.57;;
53688;SDS011;39583;54.682;30.662;2022-12-29T10:46:10;20.58;;;10.23;;
53688;SDS011;39583;54.682;30.662;2022-12-29T10:48:43;26.50;;;10.05;;
53688;SDS011;39583;54.682;30.662;2022-12-29T10:51:16;22.75;;;10.80;;
53688;SDS011;39583;54.682;30.662;2022-12-29T10:56:42;20.55;;;9.75;;
53688;SDS011;39583;54.682;30.662;2022-12-29T10:59:34;25.52;;;11.45;;
53688;SDS011;39583;54.682;30.662;2022-12-29T11:07:04;26.83;;;10.60;;
53688;SDS011;39583;54.682;30.662;2022-12-29T11:09:32;22.77;;;11.00;;
53688;SDS011;39583;54.682;30.662;2022-12-29T11:12:17;21.38;;;10.65;;
53688;SDS011;39583;54.682;30.662;2022-12-29T11:14:45;17.77;;;11.00;;
53688;SDS011;39583;54.682;30.662;2022-12-29T11:17:14;25.55;;;12.15;;
53688;SDS011;39583;54.682;30.662;2022-12-29T11:19:41;18.00;;;11.20;;
53688;SDS011;39583;54.682;30.662;2022-12-29T11:24:46;21.10;;;9.55;;
53688;SDS011;39583;54.682;30.662;2022-12-29T11:27:18;25.13;;;10.63;;
53688;SDS011;39583;54.682;30.662;2022-12-29T11:29:53;20.95;;;10.95;;
53688;SDS011;39583;54.682;30.662;2022-12-29T11:32:21;20.90;;;10.25;;
53688;SDS011;39583;54.682;30.662;2022-12-29T11:34:49;23.42;;;11.30;;
53688;SDS011;39583;54.682;30.662;2022-12-29T11:40:05;26.17;;;10.45;;
53688;SDS011;39583;54.682;30.662;2022-12-29T11:42:41;29.73;;;11.07;;
53688;SDS011;39583;54.682;30.662;2022-12-29T11:45:18;18.00;;;10.57;;
53688;SDS011;39583;54.682;30.662;2022-12-29T11:47:49;21.02;;;9.35;;
53688;SDS011;39583;54.682;30.662;2022-12-29T11:50:31;20.08;;;9.70;;
53688;SDS011;39583;54.682;30.662;2022-12-29T11:53:20;21.33;;;10.95;;
53688;SDS011;39583;54.682;30.662;2022-12-29T11:55:54;18.13;;;9.90;;
53688;SDS011;39583;54.682;30.662;2022-12-29T11:58:28;19.67;;;11.65;;
53688;SDS011;39583;54.682;30.662;2022-12-29T12:01:01;19.75;;;9.93;;
53688;SDS011;39583;54.682;30.662;2022-12-29T12:06:29;19.73;;;10.48;;
53688;SDS011;39583;54.682;30.662;2022-12-29T12:09:01;16.95;;;9.63;;
53688;SDS011;39583;54.682;30.662;2022-12-29T12:11:34;22.55;;;9.65;;
53688;SDS011;39583;54.682;30.662;2022-12-29T12:14:16;21.77;;;9.32;;
53688;SDS011;39583;54.682;30.662;2022-12-29T12:17:25;14.63;;;8.50;;
53688;SDS011;39583;54.682;30.662;2022-12-29T12:20:14;20.60;;;9.27;;
53688;SDS011;39583;54.682;30.662;2022-12-29T12:23:35;12.15;;;7.28;;
53688;SDS011;39583;54.682;30.662;2022-12-29T12:26:32;17.63;;;8.50;;
53688;SDS011;39583;54.682;30.662;2022-12-29T12:28:53;20.67;;;9.43;;
53688;SDS011;39583;54.682;30.662;2022-12-29T12:31:37;18.67;;;8.57;;
53688;SDS011;39583;54.682;30.662;2022-12-29T12:34:09;19.20;;;9.35;;
53688;SDS011;39583;54.682;30.662;2022-12-29T12:36:51;19.50;;;7.10;;
53688;SDS011;39583;54.682;30.662;2022-12-29T12:53:35;19.80;;;8.35;;
53688;SDS011;39583;54.682;30.662;2022-12-29T12:56:19;23.00;;;8.88;;
53688;SDS011;39583;54.682;30.662;2022-12-29T13:09:36;20.00;;;8.45;;
53688;SDS011;39583;54.682;30.662;2022-12-29T13:12:29;22.00;;;9.00;;
53688;SDS011;39583;54.682;30.662;2022-12-29T13:15:35;24.50;;;8.68;;
53688;SDS011;39583;54.682;30.662;2022-12-29T13:20:56;21.83;;;7.88;;
53688;SDS011;39583;54.682;30.662;2022-12-29T13:26:12;26.45;;;10.02;;
53688;SDS011;39583;54.682;30.662;2022-12-29T13:28:55;11.48;;;6.65;;
53688;SDS011;39583;54.682;30.662;2022-12-29T13:31:45;12.70;;;6.82;;
53688;SDS011;39583;54.682;30.662;2022-12-29T13:34:20;22.33;;;7.18;;
53688;SDS011;39583;54.682;30.662;2022-12-29T13:37:02;20.25;;;8.88;;
53688;SDS011;39583;54.682;30.662;2022-12-29T13:39:37;17.33;;;8.43;;
53688;SDS011;39583;54.682;30.662;2022-12-29T13:42:06;13.85;;;7.18;;
53688;SDS011;39583;54.682;30.662;2022-12-29T13:44:35;20.80;;;8.98;;
53688;SDS011;39583;54.682;30.662;2022-12-29T13:49:47;15.95;;;7.82;;
53688;SDS011;39583;54.682;30.662;2022-12-29T13:52:21;16.70;;;7.60;;
53688;SDS011;39583;54.682;30.662;2022-12-29T13:55:17;17.90;;;8.35;;
53688;SDS011;39583;54.682;30.662;2022-12-29T14:00:23;19.92;;;8.48;;
53688;SDS011;39583;54.682;30.662;2022-12-29T14:06:04;15.35;;;8.57;;
53688;SDS011;39583;54.682;30.662;2022-12-29T14:08:54;18.52;;;8.30;;
53688;SDS011;39583;54.682;30.662;2022-12-29T14:11:21;16.77;;;7.60;;
53688;SDS011;39583;54.682;30.662;2022-12-29T14:13:59;20.75;;;8.13;;
53688;SDS011;39583;54.682;30.662;2022-12-29T14:16:45;19.17;;;9.38;;
53688;SDS011;39583;54.682;30.662;2022-12-29T14:19:17;19.92;;;8.93;;
53688;SDS011;39583;54.682;30.662;2022-12-29T14:21:50;15.73;;;7.25;;
53688;SDS011;39583;54.682;30.662;2022-12-29T14:35:00;17.75;;;6.95;;
53688;SDS011;39583;54.682;30.662;2022-12-29T14:38:07;16.63;;;7.43;;
53688;SDS011;39583;54.682;30.662;2022-12-29T14:40:44;14.00;;;8.15;;
53688;SDS011;39583;54.682;30.662;2022-12-29T14:43:12;16.13;;;8.00;;
53688;SDS011;39583;54.682;30.662;2022-12-29T14:45:48;14.18;;;8.50;;
53688;SDS011;39583;54.682;30.662;2022-12-29T14:50:58;19.17;;;7.30;;
53688;SDS011;39583;54.682;30.662;2022-12-29T14:56:11;13.85;;;7.32;;
53688;SDS011;39583;54.682;30.662;2022-12-29T14:58:47;18.55;;;7.95;;
53688;SDS011;39583;54.682;30.662;2022-12-29T15:04:00;12.25;;;7.28;;
53688;SDS011;39583;54.682;30.662;2022-12-29T15:06:38;19.05;;;7.95;;
53688;SDS011;39583;54.682;30.662;2022-12-29T15:11:51;19.40;;;6.68;;
53688;SDS011;39583;54.682;30.662;2022-12-29T15:14:38;12.35;;;7.07;;
53688;SDS011;39583;54.682;30.662;2022-12-29T15:17:25;16.98;;;7.18;;
53688;SDS011;39583;54.682;30.662;2022-12-29T15:19:56;13.98;;;7.47;;
53688;SDS011;39583;54.682;30.662;2022-12-29T15:22:24;8.30;;;5.63;;
53688;SDS011;39583;54.682;30.662;2022-12-29T15:24:52;13.93;;;8.35;;
53688;SDS011;39583;54.682;30.662;2022-12-29T15:27:21;16.17;;;7.88;;
53688;SDS011;39583;54.682;30.662;2022-12-29T15:29:59;15.30;;;8.05;;
53688;SDS011;39583;54.682;30.662;2022-12-29T15:32:38;12.02;;;7.53;;
53688;SDS011;39583;54.682;30.662;2022-12-29T15:37:47;15.93;;;8.35;;
53688;SDS011;39583;54.682;30.662;2022-12-29T15:40:32;17.83;;;8.57;;
53688;SDS011;39583;54.682;30.662;2022-12-29T15:43:02;15.18;;;7.25;;
53688;SDS011;39583;54.682;30.662;2022-12-29T15:45:36;17.45;;;8.75;;
53688;SDS011;39583;54.682;30.662;2022-12-29T15:48:03;14.85;;;8.00;;
53688;SDS011;39583;54.682;30.662;2022-12-29T15:50:32;15.32;;;8.63;;
53688;SDS011;39583;54.682;30.662;2022-12-29T15:53:01;13.25;;;7.20;;
53688;SDS011;39583;54.682;30.662;2022-12-29T15:55:32;17.92;;;9.02;;
53688;SDS011;39583;54.682;30.662;2022-12-29T15:58:02;16.08;;;8.63;;
53688;SDS011;39583;54.682;30.662;2022-12-29T16:00:31;12.70;;;6.38;;
53688;SDS011;39583;54.682;30.662;2022-12-29T16:03:00;16.70;;;8.63;;
53688;SDS011;39583;54.682;30.662;2022-12-29T16:05:36;17.05;;;9.52;;
53688;SDS011;39583;54.682;30.662;2022-12-29T16:08:20;17.52;;;7.88;;
53688;SDS011;39583;54.682;30.662;2022-12-29T16:10:53;15.75;;;8.30;;
53688;SDS011;39583;54.682;30.662;2022-12-29T16:13:29;15.07;;;7.07;;
53688;SDS011;39583;54.682;30.662;2022-12-29T16:16:02;17.88;;;8.00;;
53688;SDS011;39583;54.682;30.662;2022-12-29T16:18:38;13.23;;;7.55;;
53688;SDS011;39583;54.682;30.662;2022-12-29T16:21:05;16.67;;;9.32;;
53688;SDS011;39583;54.682;30.662;2022-12-29T16:23:42;13.82;;;6.72;;
53688;SDS011;39583;54.682;30.662;2022-12-29T16:26:17;15.00;;;8.70;;
53688;SDS011;39583;54.682;30.662;2022-12-29T16:28:47;17.38;;;9.55;;
53688;SDS011;39583;54.682;30.662;2022-12-29T16:31:23;11.57;;;6.88;;
53688;SDS011;39583;54.682;30.662;2022-12-29T16:33:52;9.35;;;8.10;;
53688;SDS011;39583;54.682;30.662;2022-12-29T16:36:26;12.30;;;7.90;;
53688;SDS011;39583;54.682;30.662;2022-12-29T16:41:38;13.85;;;7.72;;
53688;SDS011;39583;54.682;30.662;2022-12-29T16:44:23;15.25;;;8.18;;
53688;SDS011;39583;54.682;30.662;2022-12-29T16:49:38;10.70;;;7.38;;
53688;SDS011;39583;54.682;30.662;2022-12-29T16:52:25;13.65;;;7.72;;
53688;SDS011;39583;54.682;30.662;2022-12-29T16:54:59;18.50;;;9.23;;
53688;SDS011;39583;54.682;30.662;2022-12-29T16:57:30;12.38;;;6.97;;
53688;SDS011;39583;54.682;30.662;2022-12-29T17:00:04;16.15;;;8.13;;
53688;SDS011;39583;54.682;30.662;2022-12-29T17:02:33;13.60;;;7.05;;
53688;SDS011;39583;54.682;30.662;2022-12-29T17:05:13;11.95;;;7.15;;
53688;SDS011;39583;54.682;30.662;2022-12-29T17:07:42;12.07;;;6.43;;
53688;SDS011;39583;54.682;30.662;2022-12-29T17:10:08;9.48;;;6.85;;
53688;SDS011;39583;54.682;30.662;2022-12-29T17:12:35;9.75;;;5.57;;
53688;SDS011;39583;54.682;30.662;2022-12-29T17:15:03;9.90;;;6.20;;
53688;SDS011;39583;54.682;30.662;2022-12-29T17:17:39;12.40;;;6.50;;
53688;SDS011;39583;54.682;30.662;2022-12-29T17:22:51;11.05;;;7.05;;
53688;SDS011;39583;54.682;30.662;2022-12-29T17:25:34;9.95;;;5.80;;
53688;SDS011;39583;54.682;30.662;2022-12-29T17:28:03;11.95;;;6.72;;
53688;SDS011;39583;54.682;30.662;2022-12-29T17:30:45;13.38;;;7.00;;
53688;SDS011;39583;54.682;30.662;2022-12-29T17:33:12;10.63;;;6.45;;
53688;SDS011;39583;54.682;30.662;2022-12-29T17:35:41;12.35;;;6.95;;
53688;SDS011;39583;54.682;30.662;2022-12-29T17:38:21;11.70;;;6.93;;
53688;SDS011;39583;54.682;30.662;2022-12-29T17:40:56;10.70;;;5.95;;
53688;SDS011;39583;54.682;30.662;2022-12-29T17:43:23;13.23;;;7.22;;
53688;SDS011;39583;54.682;30.662;2022-12-29T17:45:51;14.60;;;6.72;;
53688;SDS011;39583;54.682;30.662;2022-12-29T17:48:20;12.73;;;6.90;;
53688;SDS011;39583;54.682;30.662;2022-12-29T17:50:47;9.10;;;6.20;;
53688;SDS011;39583;54.682;30.662;2022-12-29T17:53:20;12.32;;;6.53;;
53688;SDS011;39583;54.682;30.662;2022-12-29T17:55:51;10.48;;;5.65;;
53688;SDS011;39583;54.682;30.662;2022-12-29T17:58:24;12.45;;;6.60;;
53688;SDS011;39583;54.682;30.662;2022-12-29T18:00:55;9.48;;;5.75;;
53688;SDS011;39583;54.682;30.662;2022-12-29T18:05:58;11.95;;;6.70;;
53688;SDS011;39583;54.682;30.662;2022-12-29T18:08:24;12.95;;;5.93;;
53688;SDS011;39583;54.682;30.662;2022-12-29T18:10:53;12.05;;;6.13;;
53688;SDS011;39583;54.682;30.662;2022-12-29T18:15:50;12.23;;;6.40;;
53688;SDS011;39583;54.682;30.662;2022-12-29T18:18:21;13.77;;;5.97;;
53688;SDS011;39583;54.682;30.662;2022-12-29T18:20:51;11.27;;;6.90;;
53688;SDS011;39583;54.682;30.662;2022-12-29T18:26:05;12.50;;;6.72;;
53688;SDS011;39583;54.682;30.662;2022-12-29T18:28:37;12.18;;;7.22;;
53688;SDS011;39583;54.682;30.662;2022-12-29T18:31:05;10.85;;;6.13;;
53688;SDS011;39583;54.682;30.662;2022-12-29T18:33:46;9.38;;;6.00;;
53688;SDS011;39583;54.682;30.662;2022-12-29T18:36:13;9.90;;;5.57;;
53688;SDS011;39583;54.682;30.662;2022-12-29T18:38:40;11.15;;;6.30;;
53688;SDS011;39583;54.682;30.662;2022-12-29T18:41:20;10.32;;;6.43;;
53688;SDS011;39583;54.682;30.662;2022-12-29T18:43:46;13.45;;;6.63;;
53688;SDS011;39583;54.682;30.662;2022-12-29T18:46:12;9.13;;;6.43;;
53688;SDS011;39583;54.682;30.662;2022-12-29T18:48:39;9.23;;;5.85;;
53688;SDS011;39583;54.682;30.662;2022-12-29T18:51:06;10.18;;;6.05;;
53688;SDS011;39583;54.682;30.662;2022-12-29T18:53:39;7.82;;;5.75;;
53688;SDS011;39583;54.682;30.662;2022-12-29T18:56:05;7.40;;;4.57;;
53688;SDS011;39583;54.682;30.662;2022-12-29T18:58:34;8.13;;;5.07;;
53688;SDS011;39583;54.682;30.662;2022-12-29T19:01:00;7.30;;;6.38;;
53688;SDS011;39583;54.682;30.662;2022-12-29T19:03:26;14.50;;;13.43;;
53688;SDS011;39583;54.682;30.662;2022-12-29T19:05:53;8.27;;;4.85;;
53688;SDS011;39583;54.682;30.662;2022-12-29T19:08:19;8.77;;;6.22;;
